createdAt,value
2022-09-06T00:00:22.848Z,79.05
2022-09-06T00:01:22.909Z,79.36
2022-09-06T00:02:22.869Z,79.46
2022-09-06T00:03:22.802Z,79.56
2022-09-06T00:04:22.825Z,79.56
2022-09-06T00:05:22.780Z,79.56
2022-09-06T00:06:22.769Z,79.46
2022-09-06T00:07:22.797Z,79.56
2022-09-06T00:08:22.851Z,79.46
2022-09-06T00:09:22.771Z,79.36
2022-09-06T00:10:22.731Z,79.46
2022-09-06T00:11:22.758Z,79.16
2022-09-06T00:12:22.719Z,79.25
2022-09-06T00:13:22.710Z,79.36
2022-09-06T00:14:22.669Z,79.25
2022-09-06T00:15:22.643Z,79.25
2022-09-06T00:16:23.369Z,79.36
2022-09-06T00:17:22.650Z,79.42
2022-09-06T00:18:22.668Z,79.62
2022-09-06T00:19:22.591Z,79.62
2022-09-06T00:20:22.581Z,79.72
2022-09-06T00:21:22.572Z,79.52
2022-09-06T00:22:22.601Z,79.42
2022-09-06T00:23:22.540Z,79.42
2022-09-06T00:24:22.532Z,79.32
2022-09-06T00:25:22.541Z,79.32
2022-09-06T00:26:22.541Z,79.32
2022-09-06T00:27:22.491Z,79.32
2022-09-06T00:28:22.483Z,79.42
2022-09-06T00:29:22.464Z,79.42
2022-09-06T00:30:22.473Z,79.22
2022-09-06T00:31:22.570Z,79.42
2022-09-06T00:32:22.433Z,79.42
2022-09-06T00:33:22.412Z,79.42
2022-09-06T00:34:22.403Z,79.62
2022-09-06T00:35:22.402Z,79.62
2022-09-06T00:36:22.382Z,79.62
2022-09-06T00:37:22.385Z,79.52
2022-09-06T00:38:22.464Z,79.82
2022-09-06T00:39:22.332Z,79.62
2022-09-06T00:40:22.323Z,79.62
2022-09-06T00:41:22.333Z,79.52
2022-09-06T00:42:22.302Z,79.42
2022-09-06T00:43:22.292Z,79.42
2022-09-06T00:44:23.040Z,79.42
2022-09-06T00:45:22.254Z,79.32
2022-09-06T00:46:22.372Z,79.42
2022-09-06T00:47:22.241Z,79.52
2022-09-06T00:48:22.225Z,79.32
2022-09-06T00:49:22.211Z,79.32
2022-09-06T00:50:22.203Z,79.72
2022-09-06T00:51:22.206Z,79.52
2022-09-06T00:52:22.174Z,79.52
2022-09-06T00:53:22.163Z,79.42
2022-09-06T00:54:22.148Z,79.32
2022-09-06T00:55:22.134Z,79.22
2022-09-06T00:56:22.145Z,79.32
2022-09-06T00:57:22.114Z,79.36
2022-09-06T00:58:22.208Z,79.52
2022-09-06T00:59:22.073Z,79.66
2022-09-06T01:00:22.068Z,79.76
2022-09-06T01:01:22.169Z,79.96
2022-09-06T01:02:22.187Z,80.06
2022-09-06T01:03:22.026Z,80.26
2022-09-06T01:04:22.023Z,80.46
2022-09-06T01:05:21.995Z,80.66
2022-09-06T01:06:21.995Z,80.57
2022-09-06T01:07:22.015Z,80.66
2022-09-06T01:08:22.021Z,80.60
2022-09-06T01:09:21.954Z,80.70
2022-09-06T01:10:21.945Z,80.70
2022-09-06T01:11:21.925Z,80.90
2022-09-06T01:12:21.956Z,81.01
2022-09-06T01:13:21.903Z,81.10
2022-09-06T01:14:21.896Z,81.01
2022-09-06T01:15:21.875Z,81.01
2022-09-06T01:16:21.864Z,80.90
2022-09-06T01:17:21.875Z,80.90
2022-09-06T01:18:21.835Z,80.90
2022-09-06T01:19:21.823Z,81.10
2022-09-06T01:20:21.806Z,81.30
2022-09-06T01:21:21.796Z,81.51
2022-09-06T01:22:21.817Z,81.91
2022-09-06T01:23:21.766Z,82.01
2022-09-06T01:24:21.758Z,82.15
2022-09-06T01:25:21.746Z,81.91
2022-09-06T01:26:21.734Z,82.05
2022-09-06T01:27:21.736Z,82.15
2022-09-06T01:28:21.741Z,82.25
2022-09-06T01:29:21.687Z,82.56
2022-09-06T01:30:21.685Z,82.45
2022-09-06T01:31:21.777Z,82.25
2022-09-06T01:32:21.658Z,82.86
2022-09-06T01:33:21.639Z,82.86
2022-09-06T01:34:21.667Z,82.96
2022-09-06T01:35:21.608Z,83.26
2022-09-06T01:36:21.808Z,83.40
2022-09-06T01:37:21.595Z,83.60
2022-09-06T01:38:21.653Z,83.60
2022-09-06T01:39:21.569Z,83.60
2022-09-06T01:40:21.611Z,83.70
2022-09-06T01:41:21.540Z,83.80
2022-09-06T01:42:21.548Z,83.91
2022-09-06T01:43:21.508Z,83.80
2022-09-06T01:44:21.500Z,83.80
2022-09-06T01:45:21.490Z,84.01
2022-09-06T01:46:21.512Z,84.25
2022-09-06T01:47:21.497Z,84.35
2022-09-06T01:48:21.492Z,84.45
2022-09-06T01:49:21.530Z,84.45
2022-09-06T01:50:21.418Z,84.31
2022-09-06T01:51:21.429Z,84.45
2022-09-06T01:52:21.398Z,84.45
2022-09-06T01:53:21.386Z,84.41
2022-09-06T01:54:21.369Z,84.35
2022-09-06T01:55:42.360Z,84.31
2022-09-06T01:56:21.369Z,84.45
2022-09-06T01:57:21.339Z,84.31
2022-09-06T01:58:21.372Z,84.41
2022-09-06T01:59:21.301Z,84.51
2022-09-06T02:00:21.299Z,84.51
2022-09-06T02:01:21.356Z,84.61
2022-09-06T02:02:21.295Z,84.51
2022-09-06T02:03:21.258Z,84.61
2022-09-06T02:04:21.276Z,84.41
2022-09-06T02:05:21.228Z,84.21
2022-09-06T02:06:21.229Z,84.21
2022-09-06T02:07:21.201Z,84.21
2022-09-06T02:08:21.290Z,84.21
2022-09-06T02:09:21.170Z,84.11
2022-09-06T02:10:21.160Z,84.11
2022-09-06T02:11:21.179Z,84.21
2022-09-06T02:12:21.149Z,84.21
2022-09-06T02:13:21.121Z,84.21
2022-09-06T02:14:21.100Z,84.21
2022-09-06T02:15:21.091Z,84.41
2022-09-06T02:16:21.193Z,84.61
2022-09-06T02:17:21.072Z,84.85
2022-09-06T02:18:21.059Z,84.95
2022-09-06T02:19:21.061Z,85.05
2022-09-06T02:20:21.030Z,85.16
2022-09-06T02:21:21.052Z,84.95
2022-09-06T02:22:21.002Z,84.95
2022-09-06T02:23:21.003Z,84.85
2022-09-06T02:24:20.980Z,84.75
2022-09-06T02:25:20.973Z,84.75
2022-09-06T02:26:21.934Z,84.95
2022-09-06T02:27:20.951Z,84.91
2022-09-06T02:28:20.947Z,84.81
2022-09-06T02:29:20.912Z,84.75
2022-09-06T02:30:20.892Z,84.75
2022-09-06T02:31:20.961Z,84.75
2022-09-06T02:32:20.872Z,84.65
2022-09-06T02:33:20.865Z,84.85
2022-09-06T02:34:20.851Z,84.85
2022-09-06T02:35:20.834Z,84.91
2022-09-06T02:36:20.844Z,84.95
2022-09-06T02:37:20.812Z,84.95
2022-09-06T02:38:20.814Z,84.95
2022-09-06T02:39:20.794Z,84.95
2022-09-06T02:40:20.773Z,84.91
2022-09-06T02:41:20.773Z,85.05
2022-09-06T02:42:20.772Z,85.05
2022-09-06T02:43:20.736Z,85.16
2022-09-06T02:44:21.483Z,85.25
2022-09-06T02:45:20.713Z,85.25
2022-09-06T02:46:20.737Z,85.25
2022-09-06T02:47:20.712Z,85.25
2022-09-06T02:48:20.690Z,85.36
2022-09-06T02:49:20.654Z,85.36
2022-09-06T02:50:20.636Z,85.56
2022-09-06T02:51:20.629Z,85.56
2022-09-06T02:52:20.633Z,85.66
2022-09-06T02:53:20.624Z,85.66
2022-09-06T02:54:20.584Z,85.76
2022-09-06T02:55:20.575Z,85.86
2022-09-06T02:56:20.561Z,85.96
2022-09-06T02:57:20.583Z,86.07
2022-09-06T02:58:20.545Z,86.07
2022-09-06T02:59:20.524Z,85.96
2022-09-06T03:00:20.514Z,86.27
2022-09-06T03:01:20.536Z,86.36
2022-09-06T03:02:20.561Z,86.27
2022-09-06T03:03:20.475Z,86.16
2022-09-06T03:04:20.454Z,86.16
2022-09-06T03:05:20.463Z,86.47
2022-09-06T03:06:20.436Z,86.36
2022-09-06T03:07:20.456Z,86.16
2022-09-06T03:08:20.423Z,86.07
2022-09-06T03:09:20.398Z,86.02
2022-09-06T03:10:20.391Z,86.36
2022-09-06T03:11:20.375Z,86.13
2022-09-06T03:12:20.379Z,85.82
2022-09-06T03:13:20.358Z,85.72
2022-09-06T03:14:20.335Z,85.62
2022-09-06T03:15:20.373Z,85.72
2022-09-06T03:16:20.343Z,85.72
2022-09-06T03:17:20.349Z,85.82
2022-09-06T03:18:20.276Z,85.72
2022-09-06T03:19:20.268Z,85.52
2022-09-06T03:20:20.256Z,85.52
2022-09-06T03:21:20.237Z,85.42
2022-09-06T03:22:20.247Z,85.42
2022-09-06T03:23:20.215Z,85.42
2022-09-06T03:24:20.196Z,85.52
2022-09-06T03:25:20.186Z,85.52
2022-09-06T03:26:20.177Z,85.52
2022-09-06T03:27:20.193Z,85.52
2022-09-06T03:28:20.147Z,86.13
2022-09-06T03:29:20.136Z,85.82
2022-09-06T03:30:20.119Z,86.02
2022-09-06T03:31:20.177Z,85.92
2022-09-06T03:32:20.126Z,85.92
2022-09-06T03:33:20.088Z,85.92
2022-09-06T03:34:20.070Z,85.82
2022-09-06T03:35:20.046Z,85.82
2022-09-06T03:36:20.037Z,85.82
2022-09-06T03:37:20.047Z,85.88
2022-09-06T03:38:20.044Z,86.02
2022-09-06T03:39:19.997Z,85.92
2022-09-06T03:40:20.017Z,85.68
2022-09-06T03:41:19.979Z,85.68
2022-09-06T03:42:19.992Z,85.62
2022-09-06T03:43:19.951Z,85.48
2022-09-06T03:44:19.937Z,85.48
2022-09-06T03:45:19.918Z,85.48
2022-09-06T03:46:19.964Z,85.88
2022-09-06T03:47:19.917Z,85.78
2022-09-06T03:48:19.889Z,85.58
2022-09-06T03:49:19.881Z,85.58
2022-09-06T03:50:19.857Z,85.38
2022-09-06T03:51:19.847Z,85.68
2022-09-06T03:52:19.875Z,85.78
2022-09-06T03:53:19.819Z,85.78
2022-09-06T03:54:19.808Z,86.08
2022-09-06T03:55:19.830Z,85.78
2022-09-06T03:56:19.787Z,85.68
2022-09-06T03:57:19.789Z,85.68
2022-09-06T03:58:19.759Z,85.68
2022-09-06T03:59:19.739Z,85.58
2022-09-06T04:00:19.729Z,85.68
2022-09-06T04:01:19.764Z,85.78
2022-09-06T04:02:19.806Z,85.88
2022-09-06T04:03:19.739Z,85.78
2022-09-06T04:04:19.680Z,85.68
2022-09-06T04:05:19.659Z,85.72
2022-09-06T04:06:19.657Z,85.92
2022-09-06T04:07:19.669Z,86.02
2022-09-06T04:08:19.629Z,86.02
2022-09-06T04:09:19.628Z,86.02
2022-09-06T04:10:19.600Z,86.02
2022-09-06T04:11:19.581Z,86.73
2022-09-06T04:12:19.550Z,86.93
2022-09-06T04:13:19.574Z,86.69
2022-09-06T04:14:19.550Z,86.49
2022-09-06T04:15:19.531Z,85.64
2022-09-06T04:16:19.596Z,84.89
2022-09-06T04:17:19.530Z,84.39
2022-09-06T04:18:19.450Z,84.25
2022-09-06T04:19:19.429Z,83.95
2022-09-06T04:20:19.487Z,83.75
2022-09-06T04:21:19.501Z,83.54
2022-09-06T04:22:19.490Z,83.65
2022-09-06T04:23:19.431Z,83.65
2022-09-06T04:24:19.371Z,83.84
2022-09-06T04:25:19.421Z,83.61
2022-09-06T04:26:19.353Z,83.51
2022-09-06T04:27:19.361Z,83.34
2022-09-06T04:28:19.311Z,83.54
2022-09-06T04:29:19.293Z,83.75
2022-09-06T04:30:19.303Z,84.05
2022-09-06T04:31:19.332Z,83.95
2022-09-06T04:32:19.291Z,83.84
2022-09-06T04:33:19.242Z,83.95
2022-09-06T04:34:19.233Z,84.19
2022-09-06T04:35:20.175Z,84.19
2022-09-06T04:36:19.289Z,84.19
2022-09-06T04:37:19.223Z,84.39
2022-09-06T04:38:19.185Z,84.69
2022-09-06T04:39:19.162Z,84.80
2022-09-06T04:40:19.153Z,84.80
2022-09-06T04:41:19.145Z,84.89
2022-09-06T04:42:19.162Z,84.69
2022-09-06T04:43:19.122Z,84.80
2022-09-06T04:44:19.115Z,84.80
2022-09-06T04:45:19.102Z,84.89
2022-09-06T04:46:19.156Z,84.80
2022-09-06T04:47:19.131Z,85.00
2022-09-06T04:48:19.053Z,85.20
2022-09-06T04:49:19.043Z,85.10
2022-09-06T04:50:19.026Z,85.20
2022-09-06T04:51:19.014Z,85.30
2022-09-06T04:52:19.164Z,85.34
2022-09-06T04:53:18.984Z,85.54
2022-09-06T04:54:18.976Z,85.54
2022-09-06T04:55:19.043Z,85.54
2022-09-06T04:56:18.962Z,85.54
2022-09-06T04:57:18.960Z,85.44
2022-09-06T04:58:18.924Z,85.34
2022-09-06T04:59:18.904Z,85.34
2022-09-06T05:00:18.907Z,85.34
2022-09-06T05:01:18.981Z,85.44
2022-09-06T05:02:18.923Z,85.64
2022-09-06T05:03:18.854Z,85.74
2022-09-06T05:04:18.845Z,85.64
2022-09-06T05:05:18.834Z,85.84
2022-09-06T05:06:18.825Z,85.84
2022-09-06T05:07:18.835Z,86.15
2022-09-06T05:08:18.795Z,86.49
2022-09-06T05:09:18.784Z,86.44
2022-09-06T05:10:18.785Z,86.55
2022-09-06T05:11:18.767Z,86.55
2022-09-06T05:12:18.765Z,86.24
2022-09-06T05:13:18.726Z,86.24
2022-09-06T05:14:18.749Z,86.35
2022-09-06T05:15:18.696Z,86.44
2022-09-06T05:16:18.784Z,86.35
2022-09-06T05:17:18.715Z,86.35
2022-09-06T05:18:18.676Z,86.35
2022-09-06T05:19:18.674Z,86.04
2022-09-06T05:20:18.636Z,86.04
2022-09-06T05:21:18.627Z,86.04
2022-09-06T05:22:18.799Z,85.94
2022-09-06T05:23:18.597Z,85.94
2022-09-06T05:24:18.588Z,86.15
2022-09-06T05:25:18.566Z,86.04
2022-09-06T05:26:18.558Z,86.15
2022-09-06T05:27:18.577Z,86.35
2022-09-06T05:28:18.538Z,86.44
2022-09-06T05:29:18.516Z,86.44
2022-09-06T05:30:18.531Z,86.55
2022-09-06T05:31:18.512Z,86.65
2022-09-06T05:32:18.507Z,86.75
2022-09-06T05:33:18.471Z,86.85
2022-09-06T05:34:18.497Z,87.15
2022-09-06T05:35:18.448Z,86.95
2022-09-06T05:36:18.436Z,86.85
2022-09-06T05:37:18.444Z,86.85
2022-09-06T05:38:18.407Z,86.85
2022-09-06T05:39:18.388Z,86.95
2022-09-06T05:40:18.396Z,87.05
2022-09-06T05:41:18.357Z,86.85
2022-09-06T05:42:19.353Z,86.85
2022-09-06T05:43:18.340Z,86.85
2022-09-06T05:44:18.335Z,86.75
2022-09-06T05:45:18.315Z,86.55
2022-09-06T05:46:18.408Z,86.55
2022-09-06T05:47:18.316Z,86.55
2022-09-06T05:48:18.289Z,86.55
2022-09-06T05:49:18.268Z,86.35
2022-09-06T05:50:18.258Z,86.35
2022-09-06T05:51:18.238Z,86.44
2022-09-06T05:52:18.259Z,86.55
2022-09-06T05:53:18.208Z,86.65
2022-09-06T05:54:18.201Z,86.85
2022-09-06T05:55:18.199Z,87.05
2022-09-06T05:56:18.248Z,87.35
2022-09-06T05:57:18.182Z,87.15
2022-09-06T05:58:18.159Z,87.25
2022-09-06T05:59:18.128Z,87.45
2022-09-06T06:00:18.168Z,87.25
2022-09-06T06:01:18.156Z,87.05
2022-09-06T06:02:18.177Z,86.95
2022-09-06T06:03:18.079Z,86.85
2022-09-06T06:04:18.069Z,86.85
2022-09-06T06:05:18.049Z,86.85
2022-09-06T06:06:18.040Z,86.85
2022-09-06T06:07:18.059Z,86.95
2022-09-06T06:08:18.020Z,86.61
2022-09-06T06:09:18.019Z,86.51
2022-09-06T06:10:18.000Z,86.30
2022-09-06T06:11:17.970Z,86.00
2022-09-06T06:12:18.000Z,85.96
2022-09-06T06:13:17.950Z,85.86
2022-09-06T06:14:17.940Z,85.96
2022-09-06T06:15:17.926Z,85.92
2022-09-06T06:16:17.946Z,86.12
2022-09-06T06:17:17.924Z,85.31
2022-09-06T06:18:17.880Z,85.11
2022-09-06T06:19:17.871Z,85.02
2022-09-06T06:20:17.861Z,84.61
2022-09-06T06:21:17.841Z,84.81
2022-09-06T06:22:17.871Z,84.41
2022-09-06T06:23:17.826Z,84.21
2022-09-06T06:24:17.811Z,84.31
2022-09-06T06:25:18.568Z,84.11
2022-09-06T06:26:17.782Z,84.01
2022-09-06T06:27:17.793Z,83.71
2022-09-06T06:28:17.772Z,83.17
2022-09-06T06:29:17.741Z,83.26
2022-09-06T06:30:18.529Z,83.37
2022-09-06T06:31:17.739Z,83.67
2022-09-06T06:32:17.741Z,83.67
2022-09-06T06:33:17.694Z,83.76
2022-09-06T06:34:17.689Z,83.47
2022-09-06T06:35:17.663Z,83.37
2022-09-06T06:36:17.652Z,83.93
2022-09-06T06:37:17.662Z,83.93
2022-09-06T06:38:17.641Z,83.83
2022-09-06T06:39:17.831Z,84.13
2022-09-06T06:40:17.602Z,83.33
2022-09-06T06:41:17.582Z,83.33
2022-09-06T06:42:17.605Z,83.12
2022-09-06T06:43:17.562Z,82.12
2022-09-06T06:44:17.554Z,82.62
2022-09-06T06:45:17.534Z,82.89
2022-09-06T06:46:17.585Z,83.18
2022-09-06T06:47:17.534Z,82.98
2022-09-06T06:48:17.515Z,83.39
2022-09-06T06:49:17.480Z,83.15
2022-09-06T06:50:17.475Z,81.94
2022-09-06T06:51:17.464Z,82.14
2022-09-06T06:52:17.473Z,82.40
2022-09-06T06:53:17.435Z,81.26
2022-09-06T06:54:17.422Z,80.16
2022-09-06T06:55:17.401Z,80.06
2022-09-06T06:56:17.397Z,79.72
2022-09-06T06:57:17.406Z,78.78
2022-09-06T06:58:17.377Z,78.38
2022-09-06T06:59:17.345Z,78.18
2022-09-06T07:00:17.345Z,77.64
2022-09-06T07:01:17.425Z,76.64
2022-09-06T07:02:17.470Z,76.60
2022-09-06T07:03:17.303Z,76.00
2022-09-06T07:04:17.293Z,76.00
2022-09-06T07:06:18.463Z,75.87
2022-09-06T07:07:34.399Z,75.26
2022-09-06T07:08:18.236Z,75.76
2022-09-06T07:09:17.232Z,75.16
2022-09-06T07:11:20.485Z,74.66
2022-09-06T07:12:17.226Z,75.06
2022-09-06T07:13:17.179Z,74.83
2022-09-06T07:14:17.156Z,75.23
2022-09-06T07:15:17.158Z,74.73
2022-09-06T07:16:17.198Z,74.53
2022-09-06T07:17:17.217Z,74.63
2022-09-06T07:18:17.117Z,75.02
2022-09-06T07:20:18.084Z,74.93
2022-09-06T07:22:18.087Z,74.96
2022-09-06T07:24:18.028Z,75.13
2022-09-06T07:25:21.179Z,74.66
2022-09-06T07:26:17.012Z,74.63
2022-09-06T07:28:18.007Z,74.83
2022-09-06T07:29:17.009Z,74.19
2022-09-06T07:30:16.965Z,73.99
2022-09-06T07:32:17.970Z,73.69
2022-09-06T07:33:16.917Z,73.89
2022-09-06T07:34:16.909Z,73.19
2022-09-06T07:35:16.912Z,74.22
2022-09-06T07:36:16.880Z,74.29
2022-09-06T07:37:16.889Z,74.09
2022-09-06T07:38:16.860Z,74.69
2022-09-06T07:39:16.840Z,73.79
2022-09-06T07:40:16.831Z,73.99
2022-09-06T07:41:16.900Z,73.83
2022-09-06T07:42:16.841Z,74.63
2022-09-06T07:43:16.812Z,74.83
2022-09-06T07:44:17.121Z,74.53
2022-09-06T07:45:16.772Z,75.16
2022-09-06T07:46:16.823Z,75.16
2022-09-06T07:48:17.732Z,75.76
2022-09-06T07:49:16.722Z,75.46
2022-09-06T07:51:17.702Z,75.46
2022-09-06T07:53:23.309Z,74.73
2022-09-06T07:54:33.061Z,74.22
2022-09-06T07:55:18.412Z,74.43
2022-09-06T07:56:16.624Z,74.93
2022-09-06T07:57:16.654Z,75.49
2022-09-06T07:58:16.593Z,74.69
2022-09-06T07:59:16.612Z,73.59
2022-09-06T08:00:16.577Z,73.99
2022-09-06T08:01:16.655Z,73.89
2022-09-06T08:02:16.631Z,73.79
2022-09-06T08:03:16.543Z,74.29
2022-09-06T08:04:16.523Z,73.39
2022-09-06T08:06:17.495Z,72.25
2022-09-06T08:09:17.464Z,64.86
2022-09-06T08:10:18.431Z,62.94
2022-09-06T08:11:16.435Z,62.38
2022-09-06T08:12:16.445Z,60.34
2022-09-06T08:13:16.434Z,58.70
2022-09-06T08:14:16.397Z,58.67
2022-09-06T08:15:16.386Z,56.84
2022-09-06T08:16:16.402Z,57.40
2022-09-06T08:17:16.385Z,55.79
2022-09-06T08:18:16.412Z,54.78
2022-09-06T08:19:16.336Z,54.26
2022-09-06T08:20:16.316Z,54.06
2022-09-06T08:21:16.309Z,53.67
2022-09-06T08:22:16.325Z,54.36
2022-09-06T08:23:16.290Z,53.99
2022-09-06T08:24:16.267Z,55.13
2022-09-06T08:25:17.207Z,54.93
2022-09-06T08:26:16.246Z,56.07
2022-09-06T08:27:16.266Z,56.59
2022-09-06T08:28:16.217Z,56.72
2022-09-06T08:29:16.208Z,57.58
2022-09-06T08:30:16.210Z,56.46
2022-09-06T08:31:16.216Z,56.21
2022-09-06T08:32:16.207Z,55.33
2022-09-06T08:33:16.169Z,55.18
2022-09-06T08:34:16.157Z,54.88
2022-09-06T08:35:16.153Z,54.71
2022-09-06T08:36:16.119Z,54.48
2022-09-06T08:37:16.140Z,54.71
2022-09-06T08:38:16.080Z,55.13
2022-09-06T08:39:16.099Z,56.04
2022-09-06T08:40:16.060Z,55.13
2022-09-06T08:41:16.061Z,55.40
2022-09-06T08:42:16.070Z,54.48
2022-09-06T08:43:16.022Z,53.57
2022-09-06T08:45:17.000Z,54.01
2022-09-06T08:46:16.104Z,53.42
2022-09-06T08:47:15.972Z,52.40
2022-09-06T08:48:15.952Z,51.23
2022-09-06T08:49:15.991Z,51.52
2022-09-06T08:50:15.933Z,52.01
2022-09-06T08:51:15.960Z,51.54
2022-09-06T08:52:15.903Z,51.62
2022-09-06T08:53:17.579Z,51.52
2022-09-06T08:54:15.873Z,51.23
2022-09-06T08:55:15.872Z,50.81
2022-09-06T08:56:15.852Z,49.90
2022-09-06T08:57:15.876Z,50.39
2022-09-06T08:58:15.825Z,50.95
2022-09-06T08:59:15.815Z,49.46
2022-09-06T09:00:15.795Z,48.37
2022-09-06T09:01:15.840Z,48.77
2022-09-06T09:02:15.861Z,48.08
2022-09-06T09:03:17.016Z,47.88
2022-09-06T09:04:15.743Z,48.08
2022-09-06T09:05:15.744Z,47.69
2022-09-06T09:06:15.716Z,47.78
2022-09-06T09:07:15.740Z,47.29
2022-09-06T09:08:16.106Z,47.61
2022-09-06T09:09:15.687Z,47.80
2022-09-06T09:10:15.999Z,47.22
2022-09-06T09:11:15.657Z,48.27
2022-09-06T09:12:15.669Z,46.11
2022-09-06T09:13:15.649Z,46.60
2022-09-06T09:14:15.636Z,47.19
2022-09-06T09:15:15.609Z,47.31
2022-09-06T09:16:15.654Z,47.44
2022-09-06T09:17:15.619Z,48.47
2022-09-06T09:18:15.558Z,48.25
2022-09-06T09:19:15.551Z,48.71
2022-09-06T09:20:15.578Z,47.02
2022-09-06T09:21:15.579Z,47.09
2022-09-06T09:22:15.541Z,46.19
2022-09-06T09:23:15.520Z,45.38
2022-09-06T09:24:15.512Z,45.57
2022-09-06T09:25:15.479Z,44.96
2022-09-06T09:26:15.474Z,45.43
2022-09-06T09:27:15.482Z,44.74
2022-09-06T09:28:15.452Z,46.91
2022-09-06T09:29:15.443Z,44.73
2022-09-06T09:31:16.470Z,44.31
2022-09-06T09:32:15.414Z,44.60
2022-09-06T09:33:15.375Z,43.80
2022-09-06T09:34:15.362Z,43.99
2022-09-06T09:35:15.353Z,42.74
2022-09-06T09:36:15.334Z,43.04
2022-09-06T09:38:16.319Z,44.12
2022-09-06T09:39:15.301Z,44.60
2022-09-06T09:40:15.289Z,43.33
2022-09-06T09:41:15.275Z,45.39
2022-09-06T09:42:15.286Z,44.88
2022-09-06T09:43:15.255Z,44.31
2022-09-06T09:44:15.297Z,44.31
2022-09-06T09:45:15.226Z,44.09
2022-09-06T09:46:15.276Z,43.70
2022-09-06T09:47:15.234Z,45.09
2022-09-06T09:48:15.189Z,44.09
2022-09-06T09:49:15.176Z,44.68
2022-09-06T09:50:15.157Z,44.78
2022-09-06T09:51:22.590Z,43.88
2022-09-06T09:52:16.158Z,44.64
2022-09-06T09:53:15.127Z,43.27
2022-09-06T09:54:15.114Z,43.48
2022-09-06T09:55:15.098Z,43.48
2022-09-06T09:56:15.099Z,44.66
2022-09-06T09:57:15.249Z,43.99
2022-09-06T09:58:15.068Z,43.48
2022-09-06T09:59:15.050Z,42.80
2022-09-06T10:00:15.030Z,44.27
2022-09-06T10:01:15.144Z,44.56
2022-09-06T10:02:15.030Z,43.19
2022-09-06T10:03:15.080Z,43.38
2022-09-06T10:05:15.971Z,42.90
2022-09-06T10:07:15.991Z,43.98
2022-09-06T10:08:14.934Z,44.07
2022-09-06T10:09:19.053Z,44.54
2022-09-06T10:10:14.903Z,42.09
2022-09-06T10:11:14.906Z,42.90
2022-09-06T10:12:14.945Z,43.98
2022-09-06T10:13:14.888Z,43.07
2022-09-06T10:14:14.858Z,44.73
2022-09-06T10:15:14.844Z,42.88
2022-09-06T10:16:14.857Z,43.46
2022-09-06T10:17:14.915Z,42.78
2022-09-06T10:18:14.805Z,42.29
2022-09-06T10:19:14.822Z,43.17
2022-09-06T10:20:14.786Z,42.58
2022-09-06T10:21:14.796Z,43.66
2022-09-06T10:22:14.786Z,43.66
2022-09-06T10:23:14.894Z,45.03
2022-09-06T10:24:29.922Z,44.13
2022-09-06T10:25:15.727Z,42.25
2022-09-06T10:26:14.716Z,43.03
2022-09-06T10:27:14.729Z,41.86
2022-09-06T10:28:14.681Z,42.54
2022-09-06T10:29:14.684Z,41.66
2022-09-06T10:30:14.658Z,41.78
2022-09-06T10:31:14.738Z,42.36
2022-09-06T10:32:14.750Z,43.17
2022-09-06T10:33:14.627Z,43.05
2022-09-06T10:34:14.607Z,42.27
2022-09-06T10:35:14.616Z,43.73
2022-09-06T10:36:14.584Z,43.73
2022-09-06T10:37:14.621Z,40.97
2022-09-06T10:38:14.551Z,41.96
2022-09-06T10:39:14.551Z,41.25
2022-09-06T10:40:14.556Z,42.91
2022-09-06T10:41:14.522Z,41.46
2022-09-06T10:42:14.538Z,42.15
2022-09-06T10:43:14.494Z,42.44
2022-09-06T10:44:14.509Z,42.15
2022-09-06T10:45:14.511Z,42.15
2022-09-06T10:46:14.520Z,41.17
2022-09-06T10:47:14.493Z,40.37
2022-09-06T10:48:15.073Z,39.29
2022-09-06T10:49:14.425Z,40.55
2022-09-06T10:50:14.404Z,39.00
2022-09-06T10:51:14.426Z,40.27
2022-09-06T10:52:14.439Z,40.58
2022-09-06T10:53:14.378Z,40.47
2022-09-06T10:54:14.370Z,39.98
2022-09-06T10:55:14.350Z,40.29
2022-09-06T10:56:14.328Z,40.97
2022-09-06T11:00:15.332Z,41.56
2022-09-06T11:01:14.329Z,41.54
2022-09-06T11:02:14.370Z,39.96
2022-09-06T11:04:15.239Z,40.33
2022-09-06T11:06:16.450Z,41.03
2022-09-06T11:07:14.220Z,40.35
2022-09-06T11:09:15.178Z,38.96
2022-09-06T11:10:14.161Z,40.23
2022-09-06T11:11:14.151Z,39.84
2022-09-06T11:12:14.168Z,39.23
2022-09-06T11:13:14.121Z,38.28
2022-09-06T11:14:14.113Z,38.77
2022-09-06T11:15:14.102Z,39.75
2022-09-06T11:16:14.147Z,39.26
2022-09-06T11:17:14.108Z,38.59
2022-09-06T11:18:14.060Z,39.08
2022-09-06T11:19:14.053Z,39.18
2022-09-06T11:20:14.033Z,40.06
2022-09-06T11:21:17.536Z,40.27
2022-09-06T11:22:15.034Z,42.13
2022-09-06T11:23:14.005Z,40.86
2022-09-06T11:24:13.985Z,40.56
2022-09-06T11:25:13.976Z,40.25
2022-09-06T11:26:13.955Z,41.52
2022-09-06T11:27:13.976Z,40.43
2022-09-06T11:28:13.936Z,38.87
2022-09-06T11:29:13.935Z,39.55
2022-09-06T11:30:13.907Z,39.72
2022-09-06T11:33:13.878Z,39.43
2022-09-06T11:34:13.877Z,38.84
2022-09-06T11:35:13.849Z,38.84
2022-09-06T11:36:13.837Z,39.23
2022-09-06T11:37:13.860Z,38.16
2022-09-06T11:38:13.811Z,39.14
2022-09-06T11:39:13.804Z,39.33
2022-09-06T11:40:29.395Z,38.45
2022-09-06T11:41:14.778Z,39.14
2022-09-06T11:42:13.791Z,38.65
2022-09-06T11:43:13.759Z,39.65
2022-09-06T11:44:13.741Z,40.62
2022-09-06T11:45:13.731Z,40.64
2022-09-06T11:46:17.403Z,40.14
2022-09-06T11:47:14.752Z,40.53
2022-09-06T11:48:13.692Z,40.74
2022-09-06T11:49:13.684Z,40.04
2022-09-06T11:50:13.670Z,39.96
2022-09-06T11:51:13.655Z,40.06
2022-09-06T11:52:13.672Z,40.25
2022-09-06T11:53:13.634Z,40.74
2022-09-06T11:54:13.623Z,38.59
2022-09-06T11:55:13.605Z,38.71
2022-09-06T11:56:13.594Z,39.20
2022-09-06T11:57:13.629Z,40.19
2022-09-06T11:58:13.565Z,41.56
2022-09-06T11:59:13.586Z,41.17
2022-09-06T12:00:13.546Z,40.97
2022-09-06T12:01:13.537Z,40.58
2022-09-06T12:02:13.557Z,41.07
2022-09-06T12:04:14.497Z,39.98
2022-09-06T12:05:13.493Z,39.49
2022-09-06T12:06:13.485Z,40.27
2022-09-06T12:07:13.489Z,40.86
2022-09-06T12:08:13.457Z,40.56
2022-09-06T12:09:13.436Z,40.84
2022-09-06T12:10:13.426Z,41.42
2022-09-06T12:11:13.410Z,39.57
2022-09-06T12:12:16.882Z,39.96
2022-09-06T12:13:13.391Z,40.53
2022-09-06T12:14:13.388Z,39.06
2022-09-06T12:15:13.431Z,40.25
2022-09-06T12:16:13.415Z,40.84
2022-09-06T12:17:13.407Z,39.28
2022-09-06T12:18:13.337Z,40.64
2022-09-06T12:19:13.313Z,40.64
2022-09-06T12:20:13.303Z,41.42
2022-09-06T12:21:13.300Z,40.72
2022-09-06T12:22:13.348Z,41.62
2022-09-06T12:23:13.333Z,42.87
2022-09-06T12:24:13.254Z,40.62
2022-09-06T12:25:13.246Z,40.62
2022-09-06T12:26:13.235Z,42.29
2022-09-06T12:27:13.246Z,40.43
2022-09-06T12:28:13.207Z,39.67
2022-09-06T12:29:13.194Z,40.94
2022-09-06T12:30:13.185Z,42.09
2022-09-06T12:31:18.109Z,42.48
2022-09-06T12:32:14.247Z,40.21
2022-09-06T12:33:13.147Z,40.43
2022-09-06T12:34:13.208Z,39.88
2022-09-06T12:36:14.113Z,43.15
2022-09-06T12:37:13.118Z,43.23
2022-09-06T12:38:13.092Z,42.15
2022-09-06T12:39:13.068Z,41.54
2022-09-06T12:40:13.172Z,42.32
2022-09-06T12:41:13.087Z,41.44
2022-09-06T12:42:13.079Z,40.74
2022-09-06T12:43:13.021Z,41.13
2022-09-06T12:44:13.018Z,40.47
2022-09-06T12:45:13.011Z,40.27
2022-09-06T12:46:13.017Z,42.05
2022-09-06T12:47:13.004Z,42.15
2022-09-06T12:48:13.018Z,41.86
2022-09-06T12:49:12.952Z,41.66
2022-09-06T12:50:12.943Z,40.78
2022-09-06T12:51:12.923Z,41.07
2022-09-06T12:52:12.943Z,41.74
2022-09-06T12:53:15.855Z,40.08
2022-09-06T12:54:12.894Z,40.17
2022-09-06T12:55:12.880Z,40.68
2022-09-06T12:56:12.884Z,40.88
2022-09-06T12:57:12.876Z,41.17
2022-09-06T12:58:12.847Z,40.97
2022-09-06T12:59:12.827Z,42.44
2022-09-06T13:00:12.816Z,42.05
2022-09-06T13:01:12.900Z,42.25
2022-09-06T13:02:13.001Z,41.56
2022-09-06T13:03:12.786Z,41.05
2022-09-06T13:04:12.813Z,40.95
2022-09-06T13:05:12.757Z,41.54
2022-09-06T13:06:12.749Z,41.15
2022-09-06T13:07:12.768Z,41.13
2022-09-06T13:08:12.720Z,38.10
2022-09-06T13:09:12.716Z,40.16
2022-09-06T13:10:12.707Z,39.96
2022-09-06T13:11:12.698Z,38.01
2022-09-06T13:12:12.712Z,37.71
2022-09-06T13:13:12.660Z,38.01
2022-09-06T13:14:14.367Z,37.62
2022-09-06T13:15:12.648Z,37.22
2022-09-06T13:16:12.669Z,37.52
2022-09-06T13:17:12.641Z,40.16
2022-09-06T13:18:12.633Z,38.30
2022-09-06T13:19:12.598Z,38.98
2022-09-06T13:20:12.572Z,39.76